createdAt,value
2018-01-30T00:00:38.292Z,12.00
2018-01-30T00:03:07.517Z,18.43
2018-01-30T00:05:36.758Z,3.30
2018-01-30T00:08:05.982Z,9.07
2018-01-30T00:10:35.205Z,7.57
2018-01-30T00:13:04.402Z,9.80
2018-01-30T00:15:33.602Z,9.47
2018-01-30T00:18:02.818Z,9.97
2018-01-30T00:20:32.016Z,7.50
2018-01-30T00:23:01.310Z,13.23
2018-01-30T00:25:30.635Z,9.37
2018-01-30T00:28:00.591Z,11.00
2018-01-30T00:30:29.775Z,6.77
2018-01-30T00:32:59.047Z,13.10
2018-01-30T00:35:29.019Z,10.87
2018-01-30T00:37:58.346Z,9.60
2018-01-30T00:40:28.323Z,9.33
2018-01-30T00:42:57.534Z,12.30
2018-01-30T00:45:26.709Z,12.30
2018-01-30T00:47:56.029Z,13.23
2018-01-30T00:50:25.227Z,9.73
2018-01-30T00:52:54.403Z,7.53
2018-01-30T00:55:23.602Z,19.87
2018-01-30T00:57:54.381Z,10.00
2018-01-30T01:00:23.776Z,6.70
2018-01-30T01:02:53.088Z,13.33
2018-01-30T01:05:22.378Z,12.13
2018-01-30T01:07:52.347Z,13.17
2018-01-30T01:10:21.563Z,10.70
2018-01-30T01:12:50.824Z,10.83
2018-01-30T01:15:20.890Z,11.53
2018-01-30T01:17:50.095Z,11.17
2018-01-30T01:20:19.311Z,11.87
2018-01-30T01:22:49.362Z,11.90
2018-01-30T01:25:18.894Z,8.80
2018-01-30T01:27:48.113Z,12.60
2018-01-30T01:30:17.297Z,14.63
2018-01-30T01:32:46.667Z,9.63
2018-01-30T01:35:15.871Z,19.03
2018-01-30T01:37:45.093Z,9.77
2018-01-30T01:40:15.273Z,9.67
2018-01-30T01:42:46.182Z,9.37
2018-01-30T01:45:16.150Z,8.63
2018-01-30T01:47:45.418Z,17.43
2018-01-30T01:50:14.723Z,14.17
2018-01-30T01:52:43.931Z,5.43
2018-01-30T01:55:13.182Z,5.23
2018-01-30T01:57:42.365Z,10.53
2018-01-30T02:00:11.549Z,11.43
2018-01-30T02:02:40.766Z,8.07
2018-01-30T02:05:10.826Z,7.23
2018-01-30T02:07:40.098Z,8.67
2018-01-30T02:10:10.064Z,14.20
2018-01-30T02:12:39.278Z,10.13
2018-01-30T02:15:08.502Z,10.50
2018-01-30T02:17:37.728Z,31.80
2018-01-30T02:20:06.894Z,9.47
2018-01-30T02:22:36.090Z,9.70
2018-01-30T02:25:05.296Z,9.33
2018-01-30T02:27:35.310Z,11.13
2018-01-30T02:30:04.577Z,8.70
2018-01-30T02:32:34.586Z,6.63
2018-01-30T02:35:03.837Z,6.17
2018-01-30T02:37:33.834Z,6.23
2018-01-30T02:40:03.109Z,8.83
2018-01-30T02:42:32.342Z,12.47
2018-01-30T02:45:01.583Z,11.10
2018-01-30T02:47:30.869Z,9.93
2018-01-30T02:50:00.069Z,10.63
2018-01-30T02:52:29.311Z,9.27
2018-01-30T02:54:58.540Z,11.43
2018-01-30T02:57:28.530Z,6.43
2018-01-30T02:59:57.745Z,15.07
2018-01-30T03:02:27.017Z,10.50
2018-01-30T03:04:56.260Z,7.00
2018-01-30T03:07:26.219Z,7.70
2018-01-30T03:09:55.417Z,6.40
2018-01-30T03:12:24.631Z,10.93
2018-01-30T03:14:55.355Z,10.40
2018-01-30T03:17:24.590Z,9.50
2018-01-30T03:19:54.581Z,11.00
2018-01-30T03:22:23.839Z,15.83
2018-01-30T03:24:53.074Z,13.40
2018-01-30T03:27:22.296Z,12.07
2018-01-30T03:29:51.520Z,13.43
2018-01-30T03:32:20.790Z,10.20
2018-01-30T03:34:50.022Z,9.67
2018-01-30T03:37:19.274Z,11.73
2018-01-30T03:39:48.490Z,14.10
2018-01-30T03:42:18.479Z,12.70
2018-01-30T03:44:47.866Z,13.70
2018-01-30T03:47:17.110Z,15.60
2018-01-30T03:49:46.447Z,13.20
2018-01-30T03:52:15.666Z,10.70
2018-01-30T03:54:44.880Z,13.57
2018-01-30T03:57:14.266Z,17.57
2018-01-30T03:59:43.468Z,12.70
2018-01-30T04:02:12.669Z,11.97
2018-01-30T04:04:41.882Z,17.40
2018-01-30T04:07:11.882Z,11.33
2018-01-30T04:09:41.897Z,11.27
2018-01-30T04:12:12.710Z,16.37
2018-01-30T04:14:41.867Z,18.30
2018-01-30T04:17:11.195Z,13.63
2018-01-30T04:19:40.426Z,17.80
2018-01-30T04:22:09.635Z,25.37
2018-01-30T04:24:38.841Z,12.90
2018-01-30T04:27:08.811Z,16.33
2018-01-30T04:29:38.022Z,18.13
2018-01-30T04:32:07.256Z,12.83
2018-01-30T04:34:37.217Z,17.43
2018-01-30T04:37:06.442Z,16.07
2018-01-30T04:39:35.669Z,17.83
2018-01-30T04:42:05.166Z,16.07
2018-01-30T04:44:34.412Z,26.70
2018-01-30T04:47:03.662Z,22.20
2018-01-30T04:49:33.677Z,25.17
2018-01-30T04:52:03.652Z,18.83
2018-01-30T04:54:32.876Z,22.20
2018-01-30T04:57:02.092Z,24.53
2018-01-30T04:59:32.100Z,20.10
2018-01-30T05:02:01.369Z,22.70
2018-01-30T05:04:30.620Z,24.77
2018-01-30T05:06:59.883Z,23.23
2018-01-30T05:09:29.136Z,22.40
2018-01-30T05:11:58.475Z,24.80
2018-01-30T05:14:27.702Z,25.20
2018-01-30T05:16:58.411Z,29.83
2018-01-30T05:19:27.694Z,26.70
2018-01-30T05:21:57.095Z,27.40
2018-01-30T05:24:26.291Z,30.27
2018-01-30T05:26:55.603Z,23.30
2018-01-30T05:29:24.809Z,30.10
2018-01-30T05:31:54.060Z,31.73
2018-01-30T05:34:23.334Z,32.53
2018-01-30T05:36:53.354Z,27.20
2018-01-30T05:39:22.579Z,25.90
2018-01-30T05:41:51.791Z,32.27
2018-01-30T05:44:21.084Z,32.83
2018-01-30T05:46:50.386Z,43.57
2018-01-30T05:49:19.601Z,38.23
2018-01-30T05:51:48.956Z,31.33
2018-01-30T05:54:18.163Z,26.27
2018-01-30T05:56:47.376Z,32.60
2018-01-30T05:59:16.705Z,29.90
2018-01-30T06:01:45.940Z,40.00
2018-01-30T06:04:15.910Z,38.23
2018-01-30T06:06:45.120Z,31.93
2018-01-30T06:09:14.360Z,40.73
2018-01-30T06:11:43.558Z,33.53
2018-01-30T06:14:12.771Z,40.63
2018-01-30T06:16:42.002Z,34.73
2018-01-30T06:19:11.199Z,30.97
2018-01-30T06:21:40.406Z,30.50
2018-01-30T06:24:09.656Z,32.47
2018-01-30T06:26:38.923Z,35.33
2018-01-30T06:29:08.095Z,33.70
2018-01-30T06:31:37.334Z,41.47
2018-01-30T06:34:07.340Z,39.93
2018-01-30T06:36:37.313Z,34.93
2018-01-30T06:39:06.507Z,38.50
2018-01-30T06:41:35.722Z,40.00
2018-01-30T06:44:04.935Z,38.57
2018-01-30T06:46:34.188Z,35.07
2018-01-30T06:49:07.191Z,38.30
2018-01-30T06:51:37.312Z,40.23
2018-01-30T06:54:06.631Z,33.37
2018-01-30T06:56:36.676Z,38.87
2018-01-30T06:59:05.908Z,32.40
2018-01-30T07:01:35.157Z,30.20
2018-01-30T07:04:04.334Z,37.40
2018-01-30T07:06:34.368Z,39.20
2018-01-30T07:09:04.402Z,31.90
2018-01-30T07:11:34.371Z,34.30
2018-01-30T07:14:03.611Z,36.43
2018-01-30T07:16:33.588Z,29.93
2018-01-30T07:19:02.811Z,29.60
2018-01-30T07:21:32.790Z,40.83
2018-01-30T07:24:02.014Z,24.70
2018-01-30T07:26:31.220Z,30.67
2018-01-30T07:29:01.239Z,36.17
2018-01-30T07:31:31.235Z,34.37
2018-01-30T07:34:00.499Z,30.73
2018-01-30T07:36:29.699Z,38.57
2018-01-30T07:38:59.926Z,31.50
2018-01-30T07:41:29.210Z,32.03
2018-01-30T07:43:59.189Z,28.70
2018-01-30T07:46:29.393Z,33.30
2018-01-30T07:48:58.611Z,32.10
2018-01-30T07:51:28.637Z,34.13
2018-01-30T07:53:58.758Z,28.43
2018-01-30T07:56:28.730Z,34.93
2018-01-30T07:58:58.023Z,37.77
2018-01-30T08:01:27.264Z,32.30
2018-01-30T08:03:56.614Z,33.03
2018-01-30T08:06:25.841Z,25.70
2018-01-30T08:08:55.208Z,33.73
2018-01-30T08:11:24.443Z,32.80
2018-01-30T08:13:53.676Z,28.17
2018-01-30T08:16:22.979Z,29.20
2018-01-30T08:18:52.923Z,27.80
2018-01-30T08:21:22.964Z,25.47
2018-01-30T08:23:52.166Z,37.07
2018-01-30T08:26:21.354Z,32.37
2018-01-30T08:28:50.590Z,28.60
2018-01-30T08:31:19.983Z,34.10
2018-01-30T08:33:49.591Z,37.73
2018-01-30T08:36:19.567Z,32.03
2018-01-30T08:38:48.800Z,33.67
2018-01-30T08:41:18.814Z,28.73
2018-01-30T08:43:48.018Z,35.40
2018-01-30T08:46:17.495Z,35.17
2018-01-30T08:48:46.676Z,34.90
2018-01-30T08:51:15.890Z,36.20
2018-01-30T08:53:45.188Z,28.80
2018-01-30T08:56:14.426Z,42.50
2018-01-30T08:58:43.665Z,36.90
2018-01-30T09:01:12.958Z,36.00
2018-01-30T09:03:42.163Z,36.30
2018-01-30T09:06:11.419Z,34.27
2018-01-30T09:08:40.603Z,28.73
2018-01-30T09:11:10.594Z,33.03
2018-01-30T09:13:39.797Z,40.30
2018-01-30T09:16:09.029Z,31.03
2018-01-30T09:18:38.250Z,28.53
2018-01-30T09:21:07.521Z,29.80
2018-01-30T09:23:36.728Z,38.07
2018-01-30T09:26:05.960Z,35.00
2018-01-30T09:28:35.410Z,26.50
2018-01-30T09:31:04.940Z,28.93
2018-01-30T09:33:34.139Z,31.60
2018-01-30T09:36:03.398Z,30.10
2018-01-30T09:38:33.399Z,24.00
2018-01-30T09:41:02.614Z,31.70
2018-01-30T09:43:32.608Z,31.40
2018-01-30T09:46:01.858Z,25.63
2018-01-30T09:48:31.099Z,35.77
2018-01-30T09:51:00.307Z,31.17
2018-01-30T09:53:29.530Z,27.17
2018-01-30T09:55:59.514Z,20.77
2018-01-30T09:58:28.788Z,18.47
2018-01-30T10:00:58.808Z,22.20
2018-01-30T10:03:28.147Z,16.43
2018-01-30T10:05:57.370Z,23.57
2018-01-30T10:08:26.602Z,23.60
2018-01-30T10:10:55.855Z,19.93
2018-01-30T10:13:25.262Z,25.30
2018-01-30T10:15:54.476Z,20.17
2018-01-30T10:18:23.691Z,25.00
2018-01-30T10:20:52.903Z,17.27
2018-01-30T10:23:22.923Z,16.70
2018-01-30T10:25:52.910Z,18.53
2018-01-30T10:28:22.197Z,19.30
2018-01-30T10:30:51.466Z,17.97
2018-01-30T10:33:21.722Z,18.50
2018-01-30T10:35:51.326Z,27.30
2018-01-30T10:38:20.521Z,23.10
2018-01-30T10:40:49.732Z,28.90
2018-01-30T10:43:18.950Z,21.33
2018-01-30T10:45:48.183Z,17.20
2018-01-30T10:48:17.398Z,16.93
2018-01-30T10:50:46.595Z,14.30
2018-01-30T10:53:16.610Z,21.27
2018-01-30T10:55:45.846Z,16.20
2018-01-30T10:58:15.150Z,14.87
2018-01-30T11:00:44.399Z,19.83
2018-01-30T11:03:14.502Z,17.47
2018-01-30T11:05:45.458Z,20.57
2018-01-30T11:08:15.592Z,13.73
2018-01-30T11:10:44.822Z,16.33
2018-01-30T11:13:14.172Z,12.57
2018-01-30T11:15:43.847Z,13.23
2018-01-30T11:18:13.237Z,15.63
2018-01-30T11:20:42.497Z,12.93
2018-01-30T11:23:11.723Z,16.13
2018-01-30T11:25:41.011Z,19.73
2018-01-30T11:28:10.299Z,16.80
2018-01-30T11:30:40.996Z,20.60
2018-01-30T11:33:10.284Z,20.00
2018-01-30T11:35:39.607Z,19.57
2018-01-30T11:38:08.865Z,16.07
2018-01-30T11:40:38.172Z,16.67
2018-01-30T11:43:07.363Z,14.33
2018-01-30T11:45:36.620Z,19.53
2018-01-30T11:48:05.996Z,18.43
2018-01-30T11:50:35.975Z,16.50
2018-01-30T11:53:05.241Z,13.00
2018-01-30T11:55:35.249Z,18.40
2018-01-30T11:58:04.579Z,15.00
2018-01-30T12:00:34.089Z,18.30
2018-01-30T12:03:03.320Z,15.73
2018-01-30T12:05:34.159Z,11.80
2018-01-30T12:08:03.593Z,17.60
2018-01-30T12:10:32.898Z,18.83
2018-01-30T12:13:02.135Z,13.00
2018-01-30T12:15:31.376Z,8.03
2018-01-30T12:18:01.466Z,14.27
2018-01-30T12:20:30.680Z,12.93
2018-01-30T12:22:59.993Z,18.03
2018-01-30T12:25:29.225Z,13.30
2018-01-30T12:27:58.482Z,15.23
2018-01-30T12:30:28.497Z,18.90
2018-01-30T12:32:57.798Z,16.20
2018-01-30T12:35:27.857Z,17.20
2018-01-30T12:37:57.091Z,16.27
2018-01-30T12:40:26.299Z,22.30
2018-01-30T12:42:55.666Z,17.10
2018-01-30T12:45:24.854Z,15.90
2018-01-30T12:47:54.064Z,12.90
2018-01-30T12:50:23.600Z,15.80
2018-01-30T12:52:52.842Z,15.30
2018-01-30T12:55:22.067Z,15.13
2018-01-30T12:57:51.369Z,12.57
2018-01-30T13:00:20.619Z,13.07
2018-01-30T13:02:49.839Z,14.40
2018-01-30T13:05:19.107Z,15.33
2018-01-30T13:07:49.064Z,14.97
2018-01-30T13:10:18.311Z,22.23
2018-01-30T13:12:47.597Z,17.77
2018-01-30T13:15:16.866Z,15.33
2018-01-30T13:17:46.094Z,18.27
2018-01-30T13:20:15.332Z,18.33
2018-01-30T13:22:44.570Z,15.03
2018-01-30T13:25:13.792Z,14.87
2018-01-30T13:27:43.016Z,14.80
2018-01-30T13:30:13.239Z,17.50
2018-01-30T13:32:43.422Z,16.53
2018-01-30T13:35:12.654Z,13.60
2018-01-30T13:37:41.867Z,16.23
2018-01-30T13:40:11.078Z,18.13
2018-01-30T13:42:40.306Z,17.30
2018-01-30T13:45:11.046Z,22.53
2018-01-30T13:47:42.032Z,14.30
2018-01-30T13:50:11.254Z,19.80
2018-01-30T13:52:40.478Z,16.80
2018-01-30T13:55:12.074Z,15.00
2018-01-30T13:57:41.329Z,19.83
2018-01-30T14:00:10.743Z,17.53
2018-01-30T14:02:39.975Z,18.47
2018-01-30T14:05:09.979Z,17.63
2018-01-30T14:07:39.941Z,18.90
2018-01-30T14:10:09.213Z,23.57
2018-01-30T14:12:38.412Z,25.90
2018-01-30T14:15:07.656Z,21.83
2018-01-30T14:17:36.874Z,17.23
2018-01-30T14:20:06.893Z,21.70
2018-01-30T14:22:37.643Z,25.00
2018-01-30T14:25:06.880Z,15.70
2018-01-30T14:27:36.131Z,20.27
2018-01-30T14:30:06.123Z,19.50
2018-01-30T14:32:36.887Z,25.53
2018-01-30T14:35:06.914Z,21.70
2018-01-30T14:37:36.880Z,20.53
2018-01-30T14:40:06.905Z,19.13
2018-01-30T14:42:36.125Z,18.50
2018-01-30T14:45:06.132Z,21.00
2018-01-30T14:47:36.142Z,16.53
2018-01-30T14:50:05.336Z,17.57
2018-01-30T14:52:35.317Z,16.80
2018-01-30T14:55:04.621Z,21.50
2018-01-30T14:57:33.960Z,21.07
2018-01-30T15:00:03.142Z,19.27
2018-01-30T15:02:32.378Z,19.37
2018-01-30T15:05:02.351Z,19.40
2018-01-30T15:07:31.662Z,20.50
2018-01-30T15:10:00.871Z,15.27
2018-01-30T15:12:30.086Z,19.53
2018-01-30T15:14:59.321Z,17.67
2018-01-30T15:17:28.557Z,22.23
2018-01-30T15:19:58.582Z,18.57
2018-01-30T15:22:28.582Z,17.53
2018-01-30T15:24:57.828Z,21.13
2018-01-30T15:27:27.046Z,22.50
2018-01-30T15:29:56.294Z,19.50
2018-01-30T15:32:25.551Z,24.70
2018-01-30T15:34:54.817Z,21.53
2018-01-30T15:37:24.021Z,16.03
2018-01-30T15:39:53.279Z,18.77
2018-01-30T15:42:22.492Z,23.10
2018-01-30T15:44:51.734Z,17.93
2018-01-30T15:47:20.975Z,22.00
2018-01-30T15:49:50.235Z,16.50
2018-01-30T15:52:19.449Z,21.97
2018-01-30T15:54:48.690Z,18.93
2018-01-30T15:57:18.178Z,21.03
2018-01-30T15:59:47.426Z,22.90
2018-01-30T16:02:16.672Z,17.30
2018-01-30T16:04:46.704Z,17.77
2018-01-30T16:07:16.660Z,14.30
2018-01-30T16:09:45.903Z,15.00
2018-01-30T16:12:15.152Z,14.43
2018-01-30T16:14:44.346Z,17.00
2018-01-30T16:17:13.597Z,17.20
2018-01-30T16:19:43.587Z,20.67
2018-01-30T16:22:12.826Z,14.63
2018-01-30T16:24:42.040Z,12.33
2018-01-30T16:27:12.014Z,14.97
2018-01-30T16:29:41.211Z,16.87
2018-01-30T16:32:12.056Z,16.00
2018-01-30T16:34:42.075Z,19.93
2018-01-30T16:37:12.095Z,15.00
2018-01-30T16:39:42.080Z,14.67
2018-01-30T16:42:11.290Z,15.97
2018-01-30T16:44:40.539Z,13.67
2018-01-30T16:47:09.757Z,17.70
2018-01-30T16:49:40.112Z,13.20
2018-01-30T16:52:09.337Z,15.70
2018-01-30T16:54:39.320Z,17.63
2018-01-30T16:57:08.535Z,18.90
2018-01-30T16:59:38.546Z,21.53
2018-01-30T17:02:07.815Z,26.57
2018-01-30T17:04:37.151Z,24.80
2018-01-30T17:07:07.145Z,17.70
2018-01-30T17:09:36.383Z,18.90
2018-01-30T17:12:05.634Z,17.83
2018-01-30T17:14:34.899Z,14.63
2018-01-30T17:17:04.115Z,20.20
2018-01-30T17:19:33.566Z,16.70
2018-01-30T17:22:03.789Z,20.47
2018-01-30T17:24:33.755Z,22.77
2018-01-30T17:27:03.324Z,17.03
2018-01-30T17:29:32.632Z,19.10
2018-01-30T17:32:02.623Z,17.53
2018-01-30T17:34:32.630Z,16.17
2018-01-30T17:37:01.885Z,29.20
2018-01-30T17:39:31.126Z,13.77
2018-01-30T17:42:00.366Z,15.87
2018-01-30T17:44:29.577Z,17.10
2018-01-30T17:46:58.841Z,19.30
2018-01-30T17:49:28.133Z,15.90
2018-01-30T17:51:57.383Z,18.40
2018-01-30T17:54:26.579Z,18.20
2018-01-30T17:56:55.816Z,22.47
2018-01-30T17:59:25.799Z,19.10
2018-01-30T18:01:55.010Z,18.20
2018-01-30T18:04:24.227Z,14.07
2018-01-30T18:06:54.260Z,16.33
2018-01-30T18:09:24.451Z,14.97
2018-01-30T18:11:53.808Z,22.27
2018-01-30T18:14:23.016Z,15.17
2018-01-30T18:16:52.256Z,14.20
2018-01-30T18:19:22.258Z,16.80
2018-01-30T18:21:51.588Z,14.13
2018-01-30T18:24:20.820Z,17.50
2018-01-30T18:26:50.032Z,12.73
2018-01-30T18:29:19.278Z,12.60
2018-01-30T18:31:49.282Z,17.27
2018-01-30T18:34:19.325Z,19.40
2018-01-30T18:36:48.571Z,14.73
2018-01-30T18:39:17.830Z,15.73
2018-01-30T18:41:47.074Z,15.33
2018-01-30T18:44:16.352Z,16.20
2018-01-30T18:46:45.550Z,12.73
2018-01-30T18:49:14.758Z,20.43
2018-01-30T18:51:44.059Z,14.30
2018-01-30T18:54:13.298Z,18.70
2018-01-30T18:56:42.555Z,13.47
2018-01-30T18:59:11.809Z,14.70
2018-01-30T19:01:41.072Z,16.20
2018-01-30T19:04:10.282Z,17.03
2018-01-30T19:06:41.015Z,15.83
2018-01-30T19:09:11.087Z,15.47
2018-01-30T19:11:40.350Z,15.53
2018-01-30T19:14:09.629Z,14.70
2018-01-30T19:16:39.635Z,18.43
2018-01-30T19:19:09.623Z,17.77
2018-01-30T19:21:39.299Z,18.37
2018-01-30T19:24:09.312Z,17.20
2018-01-30T19:26:38.589Z,21.83
2018-01-30T19:29:08.615Z,18.07
2018-01-30T19:31:38.675Z,16.27
2018-01-30T19:34:07.914Z,19.27
2018-01-30T19:36:37.899Z,19.53
2018-01-30T19:39:07.180Z,22.03
2018-01-30T19:41:36.417Z,19.03
2018-01-30T19:44:06.427Z,21.33
2018-01-30T19:46:35.670Z,18.40
2018-01-30T19:49:04.906Z,19.00
2018-01-30T19:51:34.285Z,18.93
2018-01-30T19:54:03.560Z,19.30
2018-01-30T19:56:32.812Z,16.03
2018-01-30T19:59:02.063Z,21.73
2018-01-30T20:01:31.318Z,17.13
2018-01-30T20:04:00.603Z,17.50
2018-01-30T20:06:29.904Z,20.13
2018-01-30T20:08:59.210Z,21.13
2018-01-30T20:11:28.743Z,19.40
2018-01-30T20:13:58.727Z,16.50
2018-01-30T20:16:28.252Z,15.80
2018-01-30T20:18:58.395Z,18.77
2018-01-30T20:21:27.705Z,19.53
2018-01-30T20:23:57.812Z,19.40
2018-01-30T20:26:32.570Z,14.90
2018-01-30T20:29:02.515Z,21.50
2018-01-30T20:31:32.711Z,19.97
2018-01-30T20:34:02.696Z,18.67
2018-01-30T20:36:32.087Z,15.63
2018-01-30T20:39:01.313Z,18.20
2018-01-30T20:41:30.555Z,19.10
2018-01-30T20:43:59.822Z,12.13
2018-01-30T20:46:29.024Z,15.93
2018-01-30T20:48:58.285Z,18.30
2018-01-30T20:51:28.277Z,12.53
2018-01-30T20:53:58.306Z,12.77
2018-01-30T20:56:28.339Z,15.60
2018-01-30T20:58:57.569Z,13.30
2018-01-30T21:01:26.831Z,13.70
2018-01-30T21:03:56.158Z,12.97
2018-01-30T21:06:25.367Z,11.27
2018-01-30T21:08:54.604Z,11.43
2018-01-30T21:11:24.623Z,14.97
2018-01-30T21:13:54.633Z,8.80
2018-01-30T21:16:24.614Z,12.33
2018-01-30T21:18:53.896Z,14.67
2018-01-30T21:21:23.230Z,10.90
2018-01-30T21:23:52.721Z,10.80
2018-01-30T21:26:22.463Z,12.83
2018-01-30T21:28:51.670Z,9.93
2018-01-30T21:31:20.927Z,9.63
2018-01-30T21:33:50.134Z,11.67
2018-01-30T21:36:19.366Z,12.40
2018-01-30T21:38:49.523Z,11.80
2018-01-30T21:41:18.750Z,13.10
2018-01-30T21:43:47.967Z,12.17
2018-01-30T21:46:17.200Z,9.73
2018-01-30T21:48:47.167Z,11.37
2018-01-30T21:51:16.405Z,15.80
2018-01-30T21:53:46.460Z,16.23
2018-01-30T21:56:16.698Z,10.00
2018-01-30T21:58:46.011Z,13.97
2018-01-30T22:01:15.239Z,10.00
2018-01-30T22:03:45.237Z,12.97
2018-01-30T22:06:14.515Z,12.43
2018-01-30T22:08:43.727Z,9.53
2018-01-30T22:11:13.019Z,7.87
2018-01-30T22:13:42.220Z,11.00
2018-01-30T22:16:12.210Z,10.07
2018-01-30T22:18:41.404Z,8.10
2018-01-30T22:21:10.621Z,8.10
2018-01-30T22:23:39.880Z,10.53
2018-01-30T22:26:09.130Z,12.60
2018-01-30T22:28:38.357Z,7.67
2018-01-30T22:31:07.570Z,7.77
2018-01-30T22:33:36.786Z,6.83
2018-01-30T22:36:06.060Z,7.70
2018-01-30T22:38:35.222Z,8.20
2018-01-30T22:41:04.427Z,13.40
2018-01-30T22:43:34.425Z,7.43
2018-01-30T22:46:03.721Z,9.00
